createdAt,value
2023-05-19T00:01:21.546Z,5.95
2023-05-19T00:03:53.992Z,5.22
2023-05-19T00:06:26.981Z,5.47
2023-05-19T00:09:01.358Z,4.72
2023-05-19T00:11:29.261Z,5.25
2023-05-19T00:13:58.428Z,5.10
2023-05-19T00:16:27.726Z,5.13
2023-05-19T00:18:54.858Z,4.68
2023-05-19T00:21:21.948Z,5.82
2023-05-19T00:23:49.009Z,5.15
2023-05-19T00:26:16.128Z,5.45
2023-05-19T00:28:54.196Z,6.20
2023-05-19T00:31:21.489Z,5.53
2023-05-19T00:33:48.532Z,5.50
2023-05-19T00:36:15.674Z,5.63
2023-05-19T00:38:42.799Z,5.63
2023-05-19T00:41:09.860Z,5.30
2023-05-19T00:43:37.027Z,5.93
2023-05-19T00:46:04.084Z,6.20
2023-05-19T00:48:31.178Z,5.85
2023-05-19T00:51:04.398Z,4.70
2023-05-19T00:53:35.653Z,5.03
2023-05-19T00:56:03.638Z,5.70
2023-05-19T00:58:32.855Z,4.97
2023-05-19T01:01:05.266Z,5.30
2023-05-19T01:03:35.772Z,5.30
2023-05-19T01:06:07.498Z,5.05
2023-05-19T01:08:38.416Z,5.22
2023-05-19T01:11:07.002Z,4.25
2023-05-19T01:13:35.682Z,4.38
2023-05-19T01:16:14.561Z,3.30
2023-05-19T01:18:51.274Z,4.43
2023-05-19T01:22:01.173Z,3.85
2023-05-19T01:25:00.574Z,3.95
2023-05-19T01:27:32.966Z,3.95
2023-05-19T01:30:30.189Z,3.47
2023-05-19T01:33:07.367Z,4.10
2023-05-19T01:35:37.317Z,3.25
2023-05-19T01:38:07.856Z,3.60
2023-05-19T01:40:35.901Z,3.65
2023-05-19T01:43:04.003Z,3.33
2023-05-19T01:45:34.162Z,4.03
2023-05-19T01:48:04.535Z,3.45
2023-05-19T01:50:33.715Z,3.50
2023-05-19T01:53:01.771Z,3.65
2023-05-19T01:55:28.990Z,3.50
2023-05-19T01:58:22.984Z,4.13
2023-05-19T02:01:08.323Z,5.03
2023-05-19T02:04:15.595Z,4.30
2023-05-19T02:07:10.391Z,4.50
2023-05-19T02:09:55.557Z,4.68
2023-05-19T02:12:32.970Z,5.47
2023-05-19T02:15:06.650Z,5.53
2023-05-19T02:17:38.444Z,5.50
2023-05-19T02:20:06.929Z,6.28
2023-05-19T02:22:34.014Z,6.30
2023-05-19T02:25:01.123Z,6.85
2023-05-19T02:27:28.262Z,6.65
2023-05-19T02:29:55.516Z,6.70
2023-05-19T02:32:22.549Z,6.20
2023-05-19T02:34:49.552Z,5.80
2023-05-19T02:37:16.753Z,7.63
2023-05-19T02:39:44.630Z,6.50
2023-05-19T02:42:14.800Z,7.05
2023-05-19T02:44:41.906Z,6.80
2023-05-19T02:47:08.966Z,6.22
2023-05-19T02:49:36.266Z,6.65
2023-05-19T02:52:04.202Z,6.97
2023-05-19T02:54:31.682Z,7.60
2023-05-19T02:56:59.161Z,7.00
2023-05-19T02:59:26.271Z,5.50
2023-05-19T03:01:59.575Z,6.68
2023-05-19T03:04:26.749Z,5.75
2023-05-19T03:06:54.409Z,6.85
2023-05-19T03:09:21.595Z,6.60
2023-05-19T03:11:48.674Z,6.43
2023-05-19T03:14:15.817Z,6.32
2023-05-19T03:16:42.968Z,6.57
2023-05-19T03:19:10.537Z,8.00
2023-05-19T03:21:37.705Z,5.57
2023-05-19T03:24:05.088Z,4.95
2023-05-19T03:26:33.306Z,6.68
2023-05-19T03:29:01.159Z,7.28
2023-05-19T03:31:30.773Z,6.95
2023-05-19T03:33:58.947Z,7.18
2023-05-19T03:36:32.229Z,7.80
2023-05-19T03:39:00.543Z,7.07
2023-05-19T03:41:28.136Z,8.20
2023-05-19T03:43:56.159Z,6.88
2023-05-19T03:46:23.263Z,8.23
2023-05-19T03:48:50.848Z,8.00
2023-05-19T03:54:02.462Z,7.40
2023-05-19T03:56:30.264Z,6.80
2023-05-19T03:58:57.318Z,8.35
2023-05-19T04:01:24.400Z,8.48
2023-05-19T04:03:51.465Z,8.77
2023-05-19T04:06:19.260Z,7.88
2023-05-19T04:08:46.328Z,6.43
2023-05-19T04:11:13.502Z,7.38
2023-05-19T04:13:40.641Z,7.93
2023-05-19T04:16:08.117Z,7.60
2023-05-19T04:18:35.206Z,8.23
2023-05-19T04:21:02.275Z,7.80
2023-05-19T04:23:29.346Z,5.82
2023-05-19T04:25:58.224Z,7.82
2023-05-19T04:28:25.376Z,7.30
2023-05-19T04:30:52.507Z,8.50
2023-05-19T04:33:20.249Z,7.57
2023-05-19T04:35:47.819Z,7.35
2023-05-19T04:38:19.061Z,7.70
2023-05-19T04:40:50.486Z,6.45
2023-05-19T04:43:19.463Z,6.95
2023-05-19T04:45:47.498Z,5.88
2023-05-19T04:48:15.524Z,7.38
2023-05-19T04:50:42.744Z,7.47
2023-05-19T04:53:11.630Z,6.43
2023-05-19T04:55:39.175Z,8.02
2023-05-19T04:58:07.165Z,7.32
2023-05-19T05:00:36.009Z,7.00
2023-05-19T05:03:07.342Z,7.88
2023-05-19T05:05:35.453Z,7.50
2023-05-19T05:08:03.306Z,6.40
2023-05-19T05:10:35.961Z,6.47
2023-05-19T05:13:03.374Z,9.43
2023-05-19T05:15:30.845Z,7.20
2023-05-19T05:18:01.827Z,6.85
2023-05-19T05:20:30.748Z,6.53
2023-05-19T05:22:58.161Z,6.93
2023-05-19T05:25:26.750Z,6.57
2023-05-19T05:27:54.113Z,7.00
2023-05-19T05:30:21.210Z,6.68
2023-05-19T05:32:48.519Z,7.15
2023-05-19T05:35:29.965Z,7.00
2023-05-19T05:37:57.133Z,7.30
2023-05-19T05:40:25.108Z,7.05
2023-05-19T05:42:55.637Z,6.80
2023-05-19T05:45:26.193Z,7.53
2023-05-19T05:47:54.668Z,7.78
2023-05-19T05:50:22.133Z,7.25
2023-05-19T05:52:51.223Z,7.95
2023-05-19T05:55:18.930Z,7.60
2023-05-19T05:57:48.911Z,8.00
2023-05-19T06:00:16.577Z,8.57
2023-05-19T06:02:50.873Z,8.40
2023-05-19T06:05:19.422Z,8.20
2023-05-19T06:07:47.652Z,7.47
2023-05-19T06:10:20.081Z,7.55
2023-05-19T06:12:48.658Z,7.53
2023-05-19T06:15:16.127Z,7.00
2023-05-19T06:17:50.982Z,6.72
2023-05-19T06:20:20.062Z,6.10
2023-05-19T06:22:47.061Z,5.93
2023-05-19T06:25:15.959Z,6.55
2023-05-19T06:27:43.159Z,6.78
2023-05-19T06:30:10.505Z,8.15
2023-05-19T06:32:52.050Z,7.47
2023-05-19T06:35:19.262Z,7.18
2023-05-19T06:37:46.421Z,6.90
2023-05-19T06:40:13.792Z,8.38
2023-05-19T06:42:42.805Z,7.22
2023-05-19T06:45:31.188Z,7.70
2023-05-19T06:48:01.103Z,7.80
2023-05-19T06:50:28.863Z,8.20
2023-05-19T06:52:57.489Z,7.95
2023-05-19T06:55:25.075Z,7.93
2023-05-19T06:57:52.107Z,7.97
2023-05-19T07:00:22.149Z,8.30
2023-05-19T07:02:52.169Z,8.20
2023-05-19T07:05:20.130Z,8.48
2023-05-19T07:07:52.509Z,10.05
2023-05-19T07:10:24.117Z,8.15
2023-05-19T07:12:52.202Z,8.95
2023-05-19T07:15:21.906Z,8.30
2023-05-19T07:17:49.039Z,8.55
2023-05-19T07:20:16.108Z,8.63
2023-05-19T07:22:43.148Z,9.18
2023-05-19T07:25:10.484Z,9.13
2023-05-19T07:27:37.709Z,9.05
2023-05-19T07:30:05.056Z,8.95
2023-05-19T07:32:32.180Z,9.80
2023-05-19T07:34:59.303Z,9.30
2023-05-19T07:37:26.561Z,10.13
2023-05-19T07:39:53.679Z,9.20
2023-05-19T07:42:20.826Z,9.45
2023-05-19T07:44:47.912Z,10.02
2023-05-19T07:47:14.969Z,9.25
2023-05-19T07:49:42.042Z,9.35
2023-05-19T07:52:09.242Z,9.35
2023-05-19T07:54:36.306Z,9.15
2023-05-19T07:57:03.428Z,9.88
2023-05-19T07:59:30.631Z,9.00
2023-05-19T08:01:57.694Z,9.27
2023-05-19T08:04:24.852Z,8.85
2023-05-19T08:06:53.183Z,9.07
2023-05-19T08:09:20.261Z,10.00
2023-05-19T08:11:47.352Z,10.02
2023-05-19T08:14:14.441Z,8.48
2023-05-19T08:16:43.248Z,9.90
2023-05-19T08:19:10.383Z,9.60
2023-05-19T08:21:37.619Z,10.20
2023-05-19T08:24:04.741Z,10.60
2023-05-19T08:26:31.774Z,10.23
2023-05-19T08:28:58.811Z,10.10
2023-05-19T08:31:25.984Z,10.35
2023-05-19T08:33:53.059Z,10.43
2023-05-19T08:36:20.104Z,10.70
2023-05-19T08:38:47.140Z,10.35
2023-05-19T08:41:14.233Z,10.32
2023-05-19T08:43:41.389Z,11.13
2023-05-19T08:46:11.449Z,11.05
2023-05-19T08:48:42.422Z,11.13
2023-05-19T08:51:22.351Z,10.25
2023-05-19T08:53:51.964Z,10.50
2023-05-19T08:56:22.748Z,10.50
2023-05-19T08:58:51.447Z,10.63
2023-05-19T09:01:20.511Z,10.25
2023-05-19T09:03:50.070Z,10.30
2023-05-19T09:06:17.620Z,10.30
2023-05-19T09:08:45.203Z,10.75
2023-05-19T09:11:12.805Z,10.30
2023-05-19T09:13:39.996Z,10.18
2023-05-19T09:16:08.483Z,9.75
2023-05-19T09:18:39.791Z,9.77
2023-05-19T09:21:07.672Z,9.23
2023-05-19T09:23:35.096Z,8.50
2023-05-19T09:26:08.730Z,9.50
2023-05-19T09:28:36.925Z,8.57
2023-05-19T09:31:04.004Z,8.68
2023-05-19T09:33:34.106Z,7.30
2023-05-19T09:36:01.513Z,7.88
2023-05-19T09:38:28.621Z,8.20
2023-05-19T09:41:00.968Z,7.32
2023-05-19T09:43:29.864Z,7.53
2023-05-19T10:17:41.633Z,7.40
2023-05-19T10:20:11.090Z,7.15
2023-05-19T10:22:39.053Z,7.55
2023-05-19T10:25:07.204Z,7.15
2023-05-19T10:27:37.869Z,6.60
2023-05-19T10:30:11.836Z,7.13
2023-05-19T10:32:43.017Z,6.88
2023-05-19T10:35:32.638Z,6.55
2023-05-19T10:38:14.861Z,7.60
2023-05-19T10:41:05.079Z,7.05
2023-05-19T10:44:07.852Z,6.78
2023-05-19T10:46:35.338Z,6.75
2023-05-19T10:49:02.453Z,6.63
2023-05-19T10:51:32.878Z,6.55
2023-05-19T10:54:03.161Z,6.50
2023-05-19T10:56:31.383Z,6.32
2023-05-19T10:58:58.482Z,6.97
2023-05-19T11:01:32.548Z,6.38
2023-05-19T11:04:06.455Z,6.80
2023-05-19T11:06:36.350Z,6.78
2023-05-19T11:09:31.062Z,7.07
2023-05-19T11:12:05.578Z,6.88
2023-05-19T11:14:33.183Z,6.97
2023-05-19T11:17:00.788Z,6.25
2023-05-19T11:19:31.462Z,6.68
2023-05-19T11:22:12.467Z,6.50
2023-05-19T11:24:47.979Z,7.28
2023-05-19T11:27:31.830Z,5.55
2023-05-19T11:30:09.574Z,5.95
2023-05-19T11:32:39.779Z,6.90
2023-05-19T11:35:08.190Z,6.32
2023-05-19T11:37:35.945Z,6.13
2023-05-19T11:40:07.310Z,5.90
2023-05-19T11:42:35.477Z,6.93
2023-05-19T11:45:03.162Z,6.15
2023-05-19T11:47:42.609Z,5.10
2023-05-19T11:50:20.498Z,5.93
2023-05-19T11:52:48.228Z,6.05
2023-05-19T11:55:22.265Z,5.80
2023-05-19T12:00:37.262Z,5.40
2023-05-19T12:03:05.373Z,5.50
2023-05-19T12:05:36.543Z,5.97
2023-05-19T12:08:06.712Z,6.35
2023-05-19T12:10:35.734Z,5.70
2023-05-19T12:13:03.794Z,6.03
2023-05-19T12:15:32.179Z,5.65
2023-05-19T12:18:01.165Z,5.20
2023-05-19T12:20:32.595Z,6.32
2023-05-19T12:23:01.270Z,5.70
2023-05-19T12:25:29.998Z,5.40
2023-05-19T12:28:01.045Z,5.68
2023-05-19T12:30:29.915Z,5.30
2023-05-19T12:33:00.212Z,5.65
2023-05-19T12:35:33.358Z,6.05
2023-05-19T12:38:06.890Z,6.18
2023-05-19T12:40:37.923Z,6.30
2023-05-19T12:43:06.978Z,5.55
2023-05-19T12:45:35.728Z,5.40
2023-05-19T12:48:23.066Z,6.00
2023-05-19T12:50:55.901Z,6.03
2023-05-19T12:53:23.134Z,5.90
2023-05-19T12:55:53.153Z,5.30
2023-05-19T12:58:21.656Z,5.68
2023-05-19T13:00:49.990Z,5.70
2023-05-19T13:03:21.041Z,5.78
2023-05-19T13:05:50.769Z,5.40
2023-05-19T13:08:20.320Z,5.38
2023-05-19T13:10:49.800Z,5.13
2023-05-19T13:13:17.477Z,5.55
2023-05-19T13:15:46.273Z,5.22
2023-05-19T13:18:13.902Z,5.50
2023-05-19T13:20:42.737Z,5.35
2023-05-19T13:23:13.571Z,5.55
2023-05-19T13:25:41.646Z,5.40
2023-05-19T13:28:09.848Z,5.65
2023-05-19T13:30:39.605Z,5.88
2023-05-19T13:33:07.557Z,5.40
2023-05-19T13:35:37.555Z,5.30
2023-05-19T13:38:10.438Z,5.75
2023-05-19T13:40:38.516Z,5.85
2023-05-19T13:43:06.205Z,5.60
2023-05-19T13:45:33.709Z,5.65
2023-05-19T13:48:00.837Z,5.95
2023-05-19T13:50:27.848Z,5.22
2023-05-19T13:52:55.059Z,5.53
2023-05-19T13:55:23.423Z,5.88
2023-05-19T13:57:51.025Z,6.03
2023-05-19T14:00:19.163Z,5.85
2023-05-19T14:02:46.602Z,5.72
2023-05-19T14:05:13.932Z,5.65
2023-05-19T14:07:41.466Z,6.05
2023-05-19T14:10:09.089Z,5.75
2023-05-19T14:12:49.571Z,5.47
2023-05-19T14:15:23.872Z,5.25
2023-05-19T14:17:51.134Z,5.82
2023-05-19T14:20:18.255Z,5.20
2023-05-19T14:22:45.310Z,5.82
2023-05-19T14:25:12.339Z,5.63
2023-05-19T14:27:42.250Z,5.57
2023-05-19T14:30:09.725Z,5.38
2023-05-19T14:32:36.827Z,5.57
2023-05-19T14:35:04.446Z,5.72
2023-05-19T14:37:32.405Z,6.07
2023-05-19T14:40:00.032Z,5.68
2023-05-19T14:42:27.057Z,5.30
2023-05-19T14:44:54.063Z,5.13
2023-05-19T14:47:21.150Z,5.13
2023-05-19T14:49:48.342Z,5.47
2023-05-19T14:52:15.427Z,5.53
2023-05-19T14:54:42.408Z,5.32
2023-05-19T14:57:09.429Z,5.78
2023-05-19T14:59:39.309Z,5.90
2023-05-19T15:02:06.694Z,5.40
2023-05-19T15:04:33.792Z,5.20
2023-05-19T15:09:30.895Z,5.90
2023-05-19T15:11:58.183Z,6.10
2023-05-19T15:14:25.931Z,5.00
2023-05-19T15:16:54.272Z,5.40
2023-05-19T15:19:21.470Z,5.28
2023-05-19T15:21:50.615Z,6.03
2023-05-19T15:24:17.638Z,6.25
2023-05-19T15:26:44.937Z,5.88
2023-05-19T15:29:11.961Z,5.65
2023-05-19T15:31:39.103Z,5.63
2023-05-19T15:34:06.393Z,6.00
2023-05-19T15:36:33.396Z,5.72
2023-05-19T15:39:00.538Z,5.95
2023-05-19T15:41:27.595Z,6.10
2023-05-19T15:43:54.630Z,5.80
2023-05-19T15:46:21.678Z,5.78
2023-05-19T15:48:48.840Z,5.78
2023-05-19T15:51:16.742Z,6.45
2023-05-19T15:53:43.889Z,5.65
2023-05-19T15:56:11.111Z,5.93
2023-05-19T15:58:38.165Z,5.53
2023-05-19T16:01:05.571Z,5.72
2023-05-19T16:03:32.840Z,5.65
2023-05-19T16:06:01.110Z,5.43
2023-05-19T16:08:28.785Z,5.38
2023-05-19T16:10:56.077Z,5.35
2023-05-19T16:13:23.159Z,5.40
2023-05-19T16:15:50.243Z,5.88
2023-05-19T16:18:17.354Z,5.97
2023-05-19T16:20:44.918Z,4.95
2023-05-19T16:23:11.992Z,5.80
2023-05-19T16:25:39.033Z,5.97
2023-05-19T16:28:06.328Z,5.53
2023-05-19T16:30:33.610Z,6.13
2023-05-19T16:33:01.000Z,4.85
2023-05-19T16:35:29.808Z,5.50
2023-05-19T16:37:56.923Z,4.97
2023-05-19T16:40:24.178Z,5.47
2023-05-19T16:42:53.288Z,6.88
2023-05-19T16:45:20.408Z,5.63
2023-05-19T16:47:47.628Z,6.72
2023-05-19T16:50:14.686Z,5.15
2023-05-19T16:52:41.721Z,5.60
2023-05-19T16:55:09.475Z,5.85
2023-05-19T16:57:36.522Z,5.60
2023-05-19T17:00:04.147Z,5.68
2023-05-19T17:02:31.510Z,5.10
2023-05-19T17:04:58.727Z,5.63
2023-05-19T17:07:28.051Z,5.32
2023-05-19T17:09:56.076Z,5.50
2023-05-19T17:12:23.587Z,5.15
2023-05-19T17:14:52.216Z,5.97
2023-05-19T17:17:19.511Z,5.28
2023-05-19T17:19:46.997Z,5.28
2023-05-19T17:22:14.245Z,5.63
2023-05-19T17:24:41.487Z,5.80
2023-05-19T17:27:08.707Z,5.60
2023-05-19T17:29:36.857Z,5.90
2023-05-19T17:32:04.572Z,5.63
2023-05-19T17:34:31.624Z,5.45
2023-05-19T17:36:58.704Z,5.15
2023-05-19T17:39:25.816Z,5.57
2023-05-19T17:41:53.167Z,5.15
2023-05-19T17:44:20.264Z,5.63
2023-05-19T17:46:47.308Z,5.78
2023-05-19T17:49:15.528Z,5.95
2023-05-19T17:51:42.898Z,5.22
2023-05-19T17:54:10.016Z,6.05
2023-05-19T17:56:42.714Z,5.45
2023-05-19T17:59:10.095Z,5.55
2023-05-19T18:01:37.501Z,5.20
2023-05-19T18:04:05.130Z,5.00
2023-05-19T18:06:32.493Z,5.47
2023-05-19T18:09:02.332Z,5.25
2023-05-19T18:11:29.543Z,5.20
2023-05-19T18:13:57.444Z,5.47
2023-05-19T18:16:25.788Z,5.18
2023-05-19T18:18:53.501Z,4.72
2023-05-19T18:21:20.658Z,4.95
2023-05-19T18:23:48.158Z,4.80
2023-05-19T18:26:15.495Z,4.35
2023-05-19T18:28:43.504Z,4.82
2023-05-19T18:31:15.774Z,4.78
2023-05-19T18:33:43.691Z,4.88
2023-05-19T18:36:10.896Z,5.90
2023-05-19T18:38:37.941Z,4.53
2023-05-19T18:41:07.835Z,4.72
2023-05-19T18:43:34.954Z,4.93
2023-05-19T18:46:02.188Z,5.55
2023-05-19T18:48:29.587Z,4.80
2023-05-19T18:50:57.395Z,5.50
2023-05-19T18:53:24.511Z,5.63
2023-05-19T18:55:51.565Z,5.57
2023-05-19T18:58:19.040Z,5.90
2023-05-19T19:00:46.387Z,5.65
2023-05-19T19:03:13.558Z,5.65
2023-05-19T19:05:40.851Z,6.50
2023-05-19T19:08:08.036Z,5.47
2023-05-19T19:10:39.141Z,6.00
2023-05-19T19:13:06.788Z,5.88
2023-05-19T19:15:33.839Z,5.75
2023-05-19T19:18:01.061Z,5.55
2023-05-19T19:20:28.274Z,5.50
2023-05-19T19:22:55.286Z,5.35
2023-05-19T19:25:23.641Z,5.00
2023-05-19T19:27:51.325Z,6.43
2023-05-19T19:30:18.432Z,6.43
2023-05-19T19:32:45.985Z,6.18
2023-05-19T19:35:13.122Z,5.78
2023-05-19T19:37:40.182Z,5.93
2023-05-19T19:40:07.749Z,6.03
2023-05-19T19:42:35.046Z,5.30
2023-05-19T19:45:02.323Z,5.85
2023-05-19T19:47:29.463Z,4.97
2023-05-19T19:49:56.545Z,5.60
2023-05-19T19:52:23.836Z,5.50
2023-05-19T19:54:51.260Z,5.15
2023-05-19T19:57:18.547Z,5.45
2023-05-19T19:59:45.770Z,5.65
2023-05-19T20:02:12.880Z,5.70
2023-05-19T20:04:39.967Z,5.40
2023-05-19T20:07:06.983Z,5.47
2023-05-19T20:09:34.011Z,5.53
2023-05-19T20:12:01.278Z,5.43
2023-05-19T20:14:28.502Z,5.20
2023-05-19T20:16:55.762Z,5.82
2023-05-19T20:19:27.891Z,5.53
2023-05-19T20:21:55.078Z,5.85
2023-05-19T20:24:22.193Z,6.10
2023-05-19T20:26:49.301Z,4.80
2023-05-19T20:29:16.988Z,5.53
2023-05-19T20:31:46.568Z,5.80
2023-05-19T20:34:13.787Z,5.65
2023-05-19T20:36:41.184Z,5.90
2023-05-19T20:39:10.209Z,5.82
2023-05-19T20:41:37.338Z,6.07
2023-05-19T20:44:04.571Z,5.05
2023-05-19T20:46:31.764Z,5.75
2023-05-19T20:48:59.896Z,6.13
2023-05-19T20:51:27.453Z,5.43
2023-05-19T20:53:54.602Z,5.68
2023-05-19T20:56:22.733Z,5.78
2023-05-19T20:58:49.776Z,6.15
2023-05-19T21:01:17.039Z,4.82
2023-05-19T21:03:44.322Z,5.45
2023-05-19T21:06:11.577Z,5.35
2023-05-19T21:08:38.672Z,5.20
2023-05-19T21:11:05.897Z,5.13
2023-05-19T21:13:34.059Z,5.38
2023-05-19T21:16:01.114Z,5.20
2023-05-19T21:18:29.033Z,5.43
2023-05-19T21:20:56.237Z,4.93
2023-05-19T21:23:23.284Z,5.10
2023-05-19T21:25:50.806Z,5.57
2023-05-19T21:28:17.980Z,6.32
2023-05-19T21:30:48.430Z,5.00
2023-05-19T21:33:16.153Z,5.65
2023-05-19T21:35:44.866Z,5.43
2023-05-19T21:38:22.618Z,5.18
2023-05-19T21:40:52.016Z,5.97
2023-05-19T21:43:19.730Z,6.05
2023-05-19T21:45:46.790Z,5.93
2023-05-19T21:48:13.939Z,6.57
2023-05-19T21:50:41.006Z,5.88
2023-05-19T21:53:08.122Z,5.60
2023-05-19T21:55:35.267Z,5.82
2023-05-19T21:58:02.883Z,6.22
2023-05-19T22:00:30.268Z,5.60
2023-05-19T22:02:58.018Z,5.88
2023-05-19T22:05:25.167Z,5.50
2023-05-19T22:07:52.402Z,5.40
2023-05-19T22:10:19.680Z,6.20
2023-05-19T22:12:46.941Z,5.95
2023-05-19T22:15:14.637Z,6.13
2023-05-19T22:17:42.370Z,5.88
2023-05-19T22:20:09.966Z,6.32
2023-05-19T22:22:37.084Z,5.65
2023-05-19T22:25:04.829Z,6.07
2023-05-19T22:27:32.112Z,5.43
2023-05-19T22:29:59.963Z,5.80
2023-05-19T22:32:27.178Z,6.57
2023-05-19T22:34:54.422Z,6.35
2023-05-19T22:37:23.716Z,5.45
2023-05-19T22:39:51.380Z,5.93
2023-05-19T22:42:18.785Z,5.93
2023-05-19T22:44:46.155Z,6.55
2023-05-19T22:47:14.007Z,5.35
2023-05-19T22:49:42.468Z,5.60
2023-05-19T22:52:11.214Z,5.80
2023-05-19T22:54:38.788Z,6.47
2023-05-19T22:57:06.684Z,5.50
2023-05-19T22:59:33.938Z,5.18
2023-05-19T23:02:01.502Z,5.47
2023-05-19T23:04:28.646Z,6.25
2023-05-19T23:06:56.008Z,6.22
2023-05-19T23:09:23.099Z,6.55
2023-05-19T23:11:50.350Z,5.60
2023-05-19T23:14:18.628Z,6.97
2023-05-19T23:16:46.315Z,5.57
2023-05-19T23:19:13.491Z,5.50
2023-05-19T23:21:41.387Z,5.05
2023-05-19T23:24:08.530Z,5.45
2023-05-19T23:26:35.606Z,5.40
2023-05-19T23:29:02.782Z,5.25
2023-05-19T23:31:29.914Z,5.07
2023-05-19T23:33:57.036Z,4.57
2023-05-19T23:36:24.179Z,4.72
2023-05-19T23:38:51.259Z,4.78
2023-05-19T23:41:18.330Z,5.15
2023-05-19T23:43:45.363Z,4.85
2023-05-19T23:46:12.649Z,4.68
2023-05-19T23:48:39.746Z,5.30
2023-05-19T23:51:06.917Z,5.25
2023-05-19T23:53:33.989Z,4.47
2023-05-19T23:56:01.293Z,4.82
2023-05-19T23:58:28.448Z,4.05
